Time;durP1;ratioP1;P1;durP2;ratioP2;P2;SDS_P1;SDS_P2;PMS_P1;PMS_P2;Temp;Humidity;BMP_temperature;BMP_pressure;BME280_temperature;BME280_humidity;BME280_pressure;Samples;Min_cycle;Max_cycle;Signal;HPM_P1;HPM_P2
2021/05/28 00:02:07;;;;;;;3.70;3.40;;;19.90;52.80;;;;;;4986289;28;20257;-51
2021/05/28 00:04:32;;;;;;;6.20;4.40;;;19.90;52.80;;;;;;4986685;28;20550;-47
2021/05/28 00:06:58;;;;;;;4.10;3.70;;;19.90;52.80;;;;;;4987759;28;20226;-45
2021/05/28 00:09:25;;;;;;;4.20;3.80;;;20.00;52.90;;;;;;4984882;28;20872;-51
2021/05/28 00:11:51;;;;;;;4.60;4.20;;;19.90;52.80;;;;;;4982479;28;20199;-49
2021/05/28 00:14:17;;;;;;;5.23;4.70;;;19.90;52.70;;;;;;4984531;28;20511;-45
2021/05/28 00:16:43;;;;;;;3.90;3.60;;;19.80;52.80;;;;;;4987844;28;20209;-49
2021/05/28 00:19:08;;;;;;;5.37;4.90;;;19.80;52.90;;;;;;4988540;28;20314;-49
2021/05/28 00:21:34;;;;;;;7.03;4.23;;;19.80;52.90;;;;;;4986842;28;20588;-50
2021/05/28 00:24:00;;;;;;;4.43;4.07;;;19.80;53.00;;;;;;4990567;28;20209;-50
2021/05/28 00:26:26;;;;;;;4.60;4.20;;;19.90;52.90;;;;;;4992737;28;20445;-50
2021/05/28 00:28:52;;;;;;;5.10;4.70;;;19.90;52.90;;;;;;4990094;28;20542;-50
2021/05/28 00:31:19;;;;;;;7.40;4.80;;;19.90;53.00;;;;;;4988971;28;20210;-50
2021/05/28 00:33:45;;;;;;;5.90;5.30;;;19.90;53.00;;;;;;4983157;28;20666;-49
2021/05/28 00:36:10;;;;;;;6.50;4.73;;;19.80;53.00;;;;;;4989415;28;20492;-51
2021/05/28 00:38:36;;;;;;;6.80;5.03;;;19.80;53.20;;;;;;4988127;28;20465;-50
2021/05/28 00:41:02;;;;;;;5.47;5.00;;;19.80;53.30;;;;;;4989472;28;20223;-50
2021/05/28 00:43:28;;;;;;;5.70;5.20;;;19.80;53.40;;;;;;4986523;28;20191;-49
2021/05/28 00:45:54;;;;;;;5.40;4.90;;;19.80;53.50;;;;;;4989821;28;20949;-50
2021/05/28 00:48:19;;;;;;;5.77;5.27;;;19.70;53.90;;;;;;4987514;28;20698;-50
2021/05/28 00:50:45;;;;;;;5.63;5.00;;;19.60;54.20;;;;;;4990884;28;20230;-50
2021/05/28 00:53:11;;;;;;;5.87;5.40;;;19.50;54.20;;;;;;4989441;28;20187;-50
2021/05/28 00:55:37;;;;;;;6.33;5.73;;;19.50;54.10;;;;;;4988680;28;20195;-50
2021/05/28 00:58:03;;;;;;;5.70;5.30;;;19.60;54.30;;;;;;4991189;28;20500;-51
2021/05/28 01:00:29;;;;;;;5.67;5.27;;;19.60;54.10;;;;;;4985634;28;20237;-48
2021/05/28 01:02:55;;;;;;;5.27;4.70;;;19.70;53.90;;;;;;4985082;28;20205;-50
2021/05/28 01:05:21;;;;;;;6.00;5.50;;;19.80;53.90;;;;;;4984561;28;20955;-50
2021/05/28 01:07:47;;;;;;;5.97;5.47;;;19.80;53.60;;;;;;4989503;28;20493;-47
2021/05/28 01:10:14;;;;;;;6.70;6.10;;;19.90;53.60;;;;;;4988802;28;20206;-49
2021/05/28 01:12:40;;;;;;;4.90;4.00;;;19.90;53.40;;;;;;4988013;28;20433;-50
2021/05/28 01:15:07;;;;;;;5.20;4.80;;;20.00;53.20;;;;;;4989905;28;20438;-48
2021/05/28 01:17:34;;;;;;;5.77;5.20;;;20.00;52.80;;;;;;4985249;28;21333;-49
2021/05/28 01:20:00;;;;;;;5.13;4.73;;;20.00;52.70;;;;;;4989830;28;20484;-47
2021/05/28 01:22:25;;;;;;;6.00;5.50;;;20.10;52.60;;;;;;4987670;28;20953;-49
2021/05/28 01:24:51;;;;;;;4.87;4.30;;;20.10;52.40;;;;;;4990332;28;20203;-51
2021/05/28 01:27:18;;;;;;;5.80;5.40;;;20.10;52.20;;;;;;4986940;28;20265;-50
2021/05/28 01:29:45;;;;;;;5.63;5.13;;;20.20;52.00;;;;;;4987141;28;20249;-47
2021/05/28 01:32:10;;;;;;;4.97;4.57;;;20.10;52.30;;;;;;4989365;28;20448;-49
2021/05/28 01:34:36;;;;;;;6.67;6.00;;;20.10;52.20;;;;;;4985984;28;20540;-46
2021/05/28 01:37:03;;;;;;;6.17;5.57;;;20.10;52.00;;;;;;4982813;28;20624;-46
2021/05/28 01:39:29;;;;;;;6.80;5.43;;;20.10;52.10;;;;;;4985464;28;20195;-50
2021/05/28 01:41:55;;;;;;;5.20;4.80;;;20.20;52.10;;;;;;4985872;28;20446;-46
2021/05/28 01:44:20;;;;;;;5.70;5.20;;;20.20;52.10;;;;;;4984046;28;20442;-46
2021/05/28 01:46:48;;;;;;;5.10;4.60;;;20.20;52.00;;;;;;4986820;28;20621;-50
2021/05/28 01:49:15;;;;;;;5.57;5.07;;;20.20;52.00;;;;;;4984851;28;20222;-49
2021/05/28 01:51:48;;;;;;;5.90;5.40;;;20.20;51.80;;;;;;4989035;28;20442;-50
2021/05/28 01:54:14;;;;;;;6.23;4.47;;;20.20;51.70;;;;;;4988079;28;20449;-47
2021/05/28 01:56:40;;;;;;;5.53;5.13;;;20.20;51.70;;;;;;4985319;28;20967;-45
2021/05/28 01:59:10;;;;;;;4.60;4.00;;;20.20;51.60;;;;;;4984348;28;20460;-46
2021/05/28 02:01:35;;;;;;;5.67;5.07;;;20.20;51.70;;;;;;4988860;28;20450;-46
2021/05/28 02:04:02;;;;;;;5.40;4.90;;;20.20;51.70;;;;;;4987728;28;20442;-49
2021/05/28 02:06:28;;;;;;;5.40;5.00;;;20.20;51.70;;;;;;4988767;28;20546;-48
2021/05/28 02:08:54;;;;;;;5.10;4.60;;;20.20;51.60;;;;;;4989040;28;20487;-48
2021/05/28 02:11:19;;;;;;;4.27;3.87;;;20.20;51.40;;;;;;4990876;28;20191;-49
2021/05/28 02:13:45;;;;;;;6.00;4.50;;;20.20;51.10;;;;;;4990638;28;20202;-50
2021/05/28 02:16:12;;;;;;;5.93;4.93;;;20.30;51.20;;;;;;4993082;28;20218;-46
2021/05/28 02:18:37;;;;;;;4.77;4.37;;;20.30;51.10;;;;;;4992366;28;20209;-47
2021/05/28 02:21:03;;;;;;;4.20;3.80;;;20.30;50.80;;;;;;4989248;28;20458;-47
2021/05/28 02:23:29;;;;;;;4.57;4.17;;;20.30;50.40;;;;;;4992934;28;20203;-46
2021/05/28 02:25:54;;;;;;;4.23;3.83;;;20.30;50.10;;;;;;4990599;28;20647;-47
2021/05/28 02:28:20;;;;;;;4.67;4.37;;;20.30;50.10;;;;;;4991043;28;20234;-50
2021/05/28 02:30:46;;;;;;;3.73;3.43;;;20.30;50.10;;;;;;4990826;28;20193;-49
2021/05/28 02:33:11;;;;;;;3.67;3.47;;;20.30;50.40;;;;;;4989783;28;20213;-49
2021/05/28 02:35:37;;;;;;;4.23;3.83;;;20.30;50.80;;;;;;4991957;28;20721;-51
2021/05/28 02:38:02;;;;;;;4.50;3.90;;;20.20;50.90;;;;;;4989090;28;20595;-50
2021/05/28 02:40:28;;;;;;;5.13;4.67;;;20.20;51.20;;;;;;4989908;28;20199;-50
2021/05/28 02:42:54;;;;;;;4.47;4.17;;;20.10;51.20;;;;;;4986235;28;20191;-48
2021/05/28 02:45:21;;;;;;;5.60;4.40;;;20.10;51.20;;;;;;4991990;28;20199;-49
2021/05/28 02:47:47;;;;;;;4.00;3.53;;;20.10;51.20;;;;;;4993350;28;20302;-49
2021/05/28 02:50:13;;;;;;;4.50;4.10;;;20.10;51.20;;;;;;4990267;28;20929;-50
2021/05/28 02:52:38;;;;;;;3.87;3.57;;;20.10;51.10;;;;;;4987117;28;20452;-47
2021/05/28 02:55:05;;;;;;;4.50;4.10;;;20.20;51.10;;;;;;4991133;28;20658;-49
2021/05/28 02:57:31;;;;;;;4.60;4.30;;;20.20;51.10;;;;;;4991828;28;20548;-50
2021/05/28 02:59:57;;;;;;;5.00;4.60;;;20.20;51.10;;;;;;4990370;28;20457;-50
2021/05/28 03:02:22;;;;;;;4.13;3.83;;;20.20;51.30;;;;;;4990515;28;20222;-47
2021/05/28 03:04:48;;;;;;;5.53;5.13;;;20.20;51.20;;;;;;4986861;28;20198;-50
2021/05/28 03:07:13;;;;;;;4.37;3.97;;;20.20;51.20;;;;;;4991987;28;20574;-50
2021/05/28 03:09:40;;;;;;;3.40;3.07;;;20.20;51.30;;;;;;4984948;28;20567;-46
2021/05/28 03:12:06;;;;;;;5.50;5.00;;;20.20;51.30;;;;;;4987254;28;20191;-46
2021/05/28 03:14:32;;;;;;;5.50;4.43;;;20.30;51.30;;;;;;4989966;28;20445;-49
2021/05/28 03:16:57;;;;;;;5.30;4.80;;;20.30;51.40;;;;;;4992623;28;20484;-47
2021/05/28 03:19:34;;;;;;;5.37;4.93;;;20.30;51.40;;;;;;4991396;28;20206;-49
2021/05/28 03:24:44;;;;;;;8.03;5.63;;;20.10;51.10;;;;;;4984620;28;20934;-47
2021/05/28 03:27:10;;;;;;;7.10;5.70;;;20.00;51.30;;;;;;4993041;28;20830;-48
2021/05/28 03:29:36;;;;;;;6.20;5.70;;;19.90;51.50;;;;;;4991180;28;20445;-46
2021/05/28 03:32:02;;;;;;;6.63;6.10;;;19.80;51.70;;;;;;4990738;28;21032;-48
2021/05/28 03:34:28;;;;;;;6.63;6.00;;;19.80;52.00;;;;;;4988499;28;20508;-45
2021/05/28 03:36:54;;;;;;;5.97;5.47;;;19.70;52.30;;;;;;4986830;28;20461;-48
2021/05/28 03:39:19;;;;;;;4.90;4.50;;;19.70;52.40;;;;;;4989910;28;20281;-46
2021/05/28 03:41:45;;;;;;;5.50;5.00;;;19.70;52.30;;;;;;4990478;28;20539;-49
2021/05/28 03:44:10;;;;;;;5.40;4.90;;;19.70;52.20;;;;;;4984969;28;20194;-50
2021/05/28 03:46:36;;;;;;;5.67;5.10;;;19.80;52.00;;;;;;4988699;28;20261;-46
2021/05/28 03:49:02;;;;;;;5.30;4.50;;;19.80;51.50;;;;;;4991075;28;20194;-50
2021/05/28 03:51:28;;;;;;;4.60;4.20;;;19.90;51.20;;;;;;4985165;28;20222;-51
2021/05/28 03:53:54;;;;;;;3.77;3.47;;;19.80;50.80;;;;;;4988308;28;20681;-51
2021/05/28 03:56:19;;;;;;;4.67;4.10;;;19.90;51.00;;;;;;4985438;28;20672;-50
2021/05/28 03:58:45;;;;;;;8.83;3.70;;;19.90;51.00;;;;;;4990895;28;20190;-47
2021/05/28 04:01:10;;;;;;;4.47;4.07;;;19.90;50.90;;;;;;4988400;28;20595;-48
2021/05/28 04:03:36;;;;;;;4.83;4.10;;;20.00;50.80;;;;;;4989278;28;20275;-50
2021/05/28 04:06:02;;;;;;;5.33;3.87;;;20.00;50.50;;;;;;4988485;28;20284;-46
2021/05/28 04:08:28;;;;;;;4.60;4.20;;;20.00;50.40;;;;;;4987063;28;20250;-49
2021/05/28 04:10:53;;;;;;;4.90;4.37;;;20.00;50.40;;;;;;4988927;28;20454;-46
2021/05/28 04:13:19;;;;;;;3.50;3.20;;;20.00;50.40;;;;;;4987895;28;20896;-50
2021/05/28 04:15:45;;;;;;;3.97;3.60;;;20.00;50.40;;;;;;4990496;28;20646;-49
2021/05/28 04:18:10;;;;;;;3.73;3.37;;;20.00;50.30;;;;;;4984984;28;20191;-46
2021/05/28 04:20:37;;;;;;;5.13;3.40;;;20.00;50.30;;;;;;4985160;28;20194;-49
2021/05/28 04:23:03;;;;;;;2.83;2.63;;;20.00;50.10;;;;;;4988886;28;20187;-50
2021/05/28 04:25:28;;;;;;;5.00;3.40;;;20.00;50.00;;;;;;4988904;28;20453;-46
2021/05/28 04:27:54;;;;;;;4.00;3.47;;;20.10;50.00;;;;;;4992143;28;20315;-48
2021/05/28 04:30:23;;;;;;;6.10;3.93;;;20.10;50.00;;;;;;4988330;28;20300;-49
2021/05/28 04:32:53;;;;;;;5.60;4.30;;;20.10;50.00;;;;;;4983628;28;20217;-48
2021/05/28 04:35:19;;;;;;;5.80;4.90;;;20.10;50.10;;;;;;4987070;28;20508;-46
2021/05/28 04:37:45;;;;;;;4.73;4.33;;;20.10;50.10;;;;;;4992189;28;20894;-46
2021/05/28 04:40:12;;;;;;;5.00;4.60;;;20.00;50.30;;;;;;4985143;28;20445;-48
2021/05/28 04:42:37;;;;;;;7.60;5.90;;;20.00;50.30;;;;;;4987967;28;20198;-46
2021/05/28 04:45:05;;;;;;;8.17;4.93;;;20.10;50.20;;;;;;4985406;28;20517;-49
2021/05/28 04:47:32;;;;;;;5.60;5.10;;;20.10;50.00;;;;;;4982949;28;20663;-50
2021/05/28 04:49:58;;;;;;;4.77;4.17;;;20.10;50.00;;;;;;4987204;28;21143;-47
2021/05/28 04:52:24;;;;;;;5.27;4.77;;;20.10;50.00;;;;;;4990169;28;20507;-50
2021/05/28 04:54:49;;;;;;;6.60;3.70;;;20.10;50.00;;;;;;4988896;28;20446;-47
2021/05/28 04:57:15;;;;;;;6.33;4.93;;;20.10;49.90;;;;;;4987236;28;20544;-46
2021/05/28 04:59:41;;;;;;;4.80;3.80;;;20.10;50.00;;;;;;4985446;28;20197;-49
2021/05/28 05:02:07;;;;;;;4.80;4.30;;;20.10;50.10;;;;;;4989582;28;20663;-46
2021/05/28 05:04:33;;;;;;;3.43;3.17;;;20.10;50.10;;;;;;4989308;28;20206;-50
2021/05/28 05:06:59;;;;;;;3.70;3.40;;;20.10;50.20;;;;;;4988455;28;20985;-46
2021/05/28 05:09:24;;;;;;;3.83;3.40;;;20.10;50.20;;;;;;4988882;28;20198;-48
2021/05/28 05:11:50;;;;;;;5.13;4.03;;;20.20;50.40;;;;;;4984691;28;21049;-46
2021/05/28 05:14:16;;;;;;;5.47;4.17;;;20.20;50.30;;;;;;4987017;28;20729;-47
2021/05/28 05:16:42;;;;;;;5.00;4.60;;;20.20;50.20;;;;;;4987343;28;20534;-47
2021/05/28 05:19:07;;;;;;;4.63;4.03;;;20.10;50.10;;;;;;4984131;28;20195;-49
2021/05/28 05:21:33;;;;;;;9.03;4.90;;;20.00;50.20;;;;;;4991482;28;20194;-48
2021/05/28 05:23:58;;;;;;;6.37;4.30;;;19.90;50.40;;;;;;4987664;28;20207;-49
2021/05/28 05:26:24;;;;;;;4.77;4.27;;;19.90;50.50;;;;;;4988249;28;20225;-50
2021/05/28 05:28:50;;;;;;;7.00;4.83;;;19.80;50.50;;;;;;4986594;28;20234;-49
2021/05/28 05:31:15;;;;;;;5.13;4.63;;;19.70;50.50;;;;;;4991398;28;20230;-51
2021/05/28 05:33:41;;;;;;;6.10;4.50;;;19.70;50.80;;;;;;4988745;28;20697;-45
2021/05/28 05:36:07;;;;;;;5.47;4.90;;;19.60;51.20;;;;;;4986433;28;20198;-49
2021/05/28 05:38:32;;;;;;;6.43;4.67;;;19.50;51.70;;;;;;4987764;28;20724;-50
2021/05/28 05:40:58;;;;;;;7.83;4.80;;;19.50;51.10;;;;;;4984979;28;20206;-47
2021/05/28 05:43:23;;;;;;;6.80;5.20;;;19.50;51.40;;;;;;4991353;28;20205;-46
2021/05/28 05:45:49;;;;;;;6.97;5.63;;;19.40;51.50;;;;;;4995888;28;20278;-48
2021/05/28 05:48:15;;;;;;;8.90;6.30;;;19.40;51.70;;;;;;4992706;28;20222;-49
2021/05/28 05:50:41;;;;;;;7.43;5.00;;;19.40;51.80;;;;;;4998047;28;20190;-51
2021/05/28 05:53:07;;;;;;;5.23;4.80;;;19.40;51.90;;;;;;4997955;28;20434;-50
2021/05/28 05:55:32;;;;;;;6.10;4.97;;;19.30;52.10;;;;;;4991395;28;20301;-50
2021/05/28 05:57:58;;;;;;;5.90;5.20;;;19.40;52.30;;;;;;4993791;28;20195;-49
2021/05/28 06:00:24;;;;;;;7.03;5.47;;;19.40;52.10;;;;;;4995052;28;20195;-50
2021/05/28 06:02:49;;;;;;;6.77;5.30;;;19.40;51.80;;;;;;4994240;28;20248;-49
2021/05/28 06:05:17;;;;;;;5.80;5.20;;;19.40;51.70;;;;;;4994766;28;20441;-49
2021/05/28 06:07:43;;;;;;;6.60;5.80;;;19.40;51.90;;;;;;4993329;28;20234;-46
2021/05/28 06:10:10;;;;;;;5.47;4.97;;;19.30;51.70;;;;;;4991965;28;20492;-50
2021/05/28 06:12:36;;;;;;;7.00;5.60;;;19.30;52.10;;;;;;4993835;28;20779;-50
2021/05/28 06:15:02;;;;;;;5.90;5.30;;;19.40;52.10;;;;;;4991121;28;20444;-47
2021/05/28 06:17:28;;;;;;;5.87;5.20;;;19.40;51.80;;;;;;4994824;28;20198;-49
2021/05/28 06:19:54;;;;;;;6.60;4.93;;;19.40;51.90;;;;;;4992974;28;20437;-49
2021/05/28 06:22:21;;;;;;;8.23;5.47;;;19.50;51.60;;;;;;4994380;28;20250;-50
2021/05/28 06:24:48;;;;;;;5.70;5.20;;;19.50;51.40;;;;;;4994216;28;20195;-50
2021/05/28 06:27:14;;;;;;;6.43;5.40;;;19.60;51.40;;;;;;4993839;28;20877;-48
2021/05/28 06:29:40;;;;;;;6.00;5.43;;;19.70;51.50;;;;;;4992673;28;20437;-47
2021/05/28 06:32:05;;;;;;;6.73;6.00;;;19.60;51.70;;;;;;4992761;28;20198;-50
2021/05/28 06:34:31;;;;;;;7.00;6.17;;;19.60;51.60;;;;;;4993537;28;20198;-49
2021/05/28 06:36:57;;;;;;;5.93;4.77;;;19.60;52.00;;;;;;5001928;28;20261;-48
2021/05/28 06:39:23;;;;;;;5.60;5.00;;;19.70;51.60;;;;;;4991176;28;20273;-47
2021/05/28 06:41:49;;;;;;;6.20;5.43;;;19.70;51.40;;;;;;4992696;28;21082;-47
2021/05/28 06:44:15;;;;;;;7.97;6.27;;;19.70;51.90;;;;;;4989444;28;21135;-49
2021/05/28 06:46:41;;;;;;;6.00;5.50;;;19.80;51.30;;;;;;4983993;28;20541;-46
2021/05/28 06:49:07;;;;;;;5.80;5.30;;;19.90;51.30;;;;;;4990915;28;20457;-46
2021/05/28 06:51:32;;;;;;;7.23;5.90;;;19.80;51.80;;;;;;4993668;28;20194;-49
2021/05/28 06:53:58;;;;;;;5.90;5.10;;;19.70;51.80;;;;;;4993848;28;20195;-51
2021/05/28 06:56:23;;;;;;;6.13;5.50;;;19.70;51.50;;;;;;4989551;28;20206;-48
2021/05/28 06:58:50;;;;;;;10.20;6.70;;;19.80;51.90;;;;;;4992683;28;20235;-46
2021/05/28 07:01:17;;;;;;;6.60;6.00;;;19.90;51.80;;;;;;4988254;28;20198;-50
2021/05/28 07:03:43;;;;;;;9.77;5.93;;;20.00;51.50;;;;;;4982430;28;20478;-46
2021/05/28 07:06:09;;;;;;;6.00;5.50;;;20.10;51.20;;;;;;4990958;28;20900;-50
2021/05/28 07:08:34;;;;;;;5.80;5.30;;;20.10;50.40;;;;;;4985107;28;20249;-48
2021/05/28 07:11:00;;;;;;;7.43;5.50;;;20.10;50.30;;;;;;4993466;28;20464;-49
2021/05/28 07:13:26;;;;;;;6.30;5.40;;;20.20;50.00;;;;;;4996626;28;20278;-48
2021/05/28 07:15:51;;;;;;;5.73;4.30;;;20.20;50.00;;;;;;4993966;28;20187;-46
2021/05/28 07:18:18;;;;;;;6.37;4.20;;;20.20;50.10;;;;;;5003184;28;20199;-50
2021/05/28 07:20:44;;;;;;;6.00;5.40;;;20.30;49.70;;;;;;4992934;28;20233;-50
2021/05/28 07:23:11;;;;;;;7.00;5.30;;;20.40;49.30;;;;;;4992541;28;20448;-47
2021/05/28 07:25:37;;;;;;;7.70;5.13;;;20.50;49.50;;;;;;4993580;28;20472;-50
2021/05/28 07:28:04;;;;;;;6.63;4.57;;;20.50;49.00;;;;;;4993167;28;20551;-50
2021/05/28 07:30:29;;;;;;;4.93;4.43;;;20.50;48.80;;;;;;4985647;28;20636;-48
2021/05/28 07:32:55;;;;;;;4.87;4.40;;;20.60;48.60;;;;;;4993409;28;20963;-47
2021/05/28 07:35:21;;;;;;;5.53;4.30;;;20.60;48.50;;;;;;4992181;28;20191;-47
2021/05/28 07:37:46;;;;;;;5.10;4.70;;;20.70;48.40;;;;;;4991732;28;20262;-49
2021/05/28 07:40:12;;;;;;;8.33;4.50;;;20.70;48.20;;;;;;4989407;28;20230;-50
2021/05/28 07:42:38;;;;;;;5.97;4.63;;;20.90;48.30;;;;;;4983402;28;20221;-50
2021/05/28 07:45:05;;;;;;;6.43;3.63;;;21.10;48.40;;;;;;4992775;28;21910;-50
2021/05/28 07:47:30;;;;;;;5.40;4.13;;;21.10;48.80;;;;;;4993096;28;20226;-50
2021/05/28 07:49:56;;;;;;;4.40;3.90;;;21.10;48.40;;;;;;4991982;28;20489;-50
2021/05/28 07:52:22;;;;;;;6.40;4.77;;;21.30;48.20;;;;;;4992448;28;20199;-51
2021/05/28 07:54:47;;;;;;;4.67;3.90;;;21.50;47.50;;;;;;4992112;28;20190;-49
2021/05/28 07:57:13;;;;;;;6.03;4.80;;;21.50;46.70;;;;;;4992979;28;20241;-51
2021/05/28 07:59:39;;;;;;;4.50;4.10;;;21.50;46.70;;;;;;4989404;28;20666;-50
2021/05/28 08:02:05;;;;;;;4.50;3.60;;;21.50;46.60;;;;;;4992108;28;20199;-46
2021/05/28 08:04:31;;;;;;;4.83;4.33;;;21.50;47.30;;;;;;4992043;28;21026;-51
2021/05/28 08:06:56;;;;;;;5.70;4.70;;;21.50;47.30;;;;;;4991671;28;20570;-49
2021/05/28 08:09:22;;;;;;;4.10;3.70;;;21.50;47.50;;;;;;4991149;28;20285;-49
2021/05/28 08:11:47;;;;;;;6.87;4.40;;;21.40;48.20;;;;;;4989686;28;20198;-49
2021/05/28 08:14:13;;;;;;;6.03;4.90;;;21.40;48.40;;;;;;4988802;28;20207;-46
2021/05/28 08:16:39;;;;;;;5.83;4.67;;;21.50;48.60;;;;;;4988357;28;20202;-50
2021/05/28 08:19:04;;;;;;;6.47;3.83;;;21.60;48.20;;;;;;4990622;28;20202;-50
2021/05/28 08:21:30;;;;;;;6.07;4.53;;;21.70;47.40;;;;;;4991386;28;20681;-49
2021/05/28 08:23:56;;;;;;;5.17;4.67;;;21.70;47.20;;;;;;4988271;28;20198;-48
2021/05/28 08:26:21;;;;;;;5.40;4.90;;;21.80;47.10;;;;;;4988073;28;20199;-48
2021/05/28 08:28:47;;;;;;;6.93;6.23;;;21.80;47.40;;;;;;4989371;28;20226;-49
2021/05/28 08:31:12;;;;;;;5.10;4.60;;;21.90;46.80;;;;;;4990084;28;20281;-51
2021/05/28 08:33:39;;;;;;;5.07;4.57;;;22.00;46.90;;;;;;4989769;28;20195;-50
2021/05/28 08:36:05;;;;;;;9.93;5.30;;;22.10;46.60;;;;;;4991946;28;20198;-49
2021/05/28 08:38:32;;;;;;;5.70;5.10;;;22.10;45.90;;;;;;4990031;28;20478;-49
2021/05/28 08:40:58;;;;;;;6.67;4.40;;;22.00;45.40;;;;;;4993026;28;20422;-50
2021/05/28 08:43:23;;;;;;;4.73;4.20;;;22.10;45.80;;;;;;4990863;28;20596;-50
2021/05/28 08:45:49;;;;;;;5.10;4.60;;;22.10;46.00;;;;;;4987748;28;20524;-49
2021/05/28 08:48:17;;;;;;;4.67;4.17;;;22.10;44.50;;;;;;4985559;28;20597;-51
2021/05/28 08:50:45;;;;;;;5.47;4.23;;;22.20;44.10;;;;;;4991204;28;20560;-51
2021/05/28 08:53:13;;;;;;;4.60;4.20;;;22.30;44.10;;;;;;4993003;28;20919;-49
2021/05/28 08:55:41;;;;;;;5.17;4.63;;;22.30;43.30;;;;;;4991016;28;20468;-49
2021/05/28 08:58:13;;;;;;;4.13;3.43;;;22.40;43.30;;;;;;4990897;28;20937;-51
2021/05/28 09:00:39;;;;;;;5.43;3.90;;;22.30;44.30;;;;;;4982014;28;20446;-51
2021/05/28 09:03:28;;;;;;;3.97;3.53;;;22.30;44.40;;;;;;4989776;28;20800;-50
2021/05/28 09:05:59;;;;;;;4.17;3.87;;;22.10;45.50;;;;;;4978290;28;21197;-47
2021/05/28 09:08:32;;;;;;;6.43;5.13;;;22.40;43.70;;;;;;4987026;28;20485;-48
2021/05/28 09:11:11;;;;;;;5.70;5.20;;;22.30;45.10;;;;;;4988348;28;20813;-47
2021/05/28 09:14:03;;;;;;;5.00;4.50;;;22.40;44.90;;;;;;4990251;28;20468;-49
2021/05/28 09:16:28;;;;;;;4.80;4.40;;;22.40;43.70;;;;;;4980803;28;21007;-45
2021/05/28 09:18:58;;;;;;;7.17;4.60;;;22.60;44.50;;;;;;4989554;28;20442;-45
2021/05/28 09:21:33;;;;;;;5.40;4.90;;;22.70;44.70;;;;;;4989713;28;20701;-45
2021/05/28 09:24:31;;;;;;;6.03;5.43;;;22.70;44.70;;;;;;4988521;28;20455;-47
2021/05/28 09:27:16;;;;;;;5.53;3.90;;;22.80;44.50;;;;;;4991716;28;20930;-45
2021/05/28 09:30:03;;;;;;;5.30;4.80;;;22.90;44.10;;;;;;4985088;28;20513;-48
2021/05/28 09:32:29;;;;;;;5.27;4.77;;;22.90;43.50;;;;;;4989939;28;20474;-46
2021/05/28 09:34:55;;;;;;;4.60;4.20;;;23.00;43.20;;;;;;4989510;28;20442;-49
2021/05/28 09:37:41;;;;;;;5.80;4.37;;;23.10;42.60;;;;;;4988743;28;20480;-45
2021/05/28 09:40:13;;;;;;;5.07;3.77;;;23.40;41.40;;;;;;4986363;28;20198;-49
2021/05/28 09:42:56;;;;;;;4.10;3.70;;;23.40;41.40;;;;;;4990262;28;20499;-46
2021/05/28 09:45:35;;;;;;;3.87;3.37;;;23.40;40.10;;;;;;4987365;28;20465;-47
2021/05/28 09:48:16;;;;;;;6.80;4.20;;;23.30;41.80;;;;;;4987447;28;20530;-48
2021/05/28 09:50:48;;;;;;;3.60;3.30;;;23.50;41.30;;;;;;4987730;28;20891;-49
2021/05/28 09:53:31;;;;;;;5.10;3.70;;;23.60;41.20;;;;;;4985203;28;20457;-46
2021/05/28 09:55:58;;;;;;;4.37;3.57;;;23.70;41.00;;;;;;4988923;28;20472;-45
2021/05/28 09:58:24;;;;;;;4.00;3.70;;;23.60;40.10;;;;;;4989986;28;20529;-48
2021/05/28 10:00:50;;;;;;;4.20;3.83;;;23.70;40.10;;;;;;4989830;28;20469;-50
2021/05/28 10:03:26;;;;;;;3.87;3.47;;;23.80;39.80;;;;;;4984789;28;21085;-47
2021/05/28 10:05:57;;;;;;;3.90;3.50;;;23.90;41.10;;;;;;4989168;28;20445;-49
2021/05/28 10:08:26;;;;;;;4.47;4.07;;;23.80;40.70;;;;;;4989823;28;20934;-49
2021/05/28 10:10:54;;;;;;;4.30;4.00;;;23.90;40.40;;;;;;4990400;28;20802;-49
2021/05/28 10:13:22;;;;;;;4.57;4.20;;;24.00;40.20;;;;;;4992855;28;20446;-52
2021/05/28 10:15:53;;;;;;;3.60;3.30;;;24.20;39.00;;;;;;4992233;28;20445;-50
2021/05/28 10:18:19;;;;;;;3.73;3.33;;;24.30;38.40;;;;;;4987760;28;20437;-49
2021/05/28 10:20:49;;;;;;;6.07;3.60;;;24.40;38.40;;;;;;4993143;28;20437;-49
2021/05/28 10:23:16;;;;;;;3.57;3.27;;;24.40;38.00;;;;;;4999698;28;20515;-50
2021/05/28 10:25:43;;;;;;;6.17;3.33;;;24.50;36.80;;;;;;4990561;28;20997;-49
2021/05/28 10:28:16;;;;;;;3.80;3.50;;;24.40;37.00;;;;;;4988286;28;20969;-48
2021/05/28 10:30:44;;;;;;;3.93;3.10;;;24.30;37.20;;;;;;4993026;28;20913;-47
2021/05/28 10:33:17;;;;;;;3.93;3.30;;;24.30;38.00;;;;;;4988786;28;20441;-46
2021/05/28 10:35:46;;;;;;;4.33;3.60;;;24.10;38.30;;;;;;4986827;28;20949;-48
2021/05/28 10:38:30;;;;;;;3.07;2.73;;;24.00;38.20;;;;;;4991895;28;20474;-45
2021/05/28 10:41:05;;;;;;;5.63;3.97;;;24.40;36.90;;;;;;4989372;28;20464;-49
2021/05/28 10:43:32;;;;;;;6.07;4.30;;;24.60;38.30;;;;;;4992810;28;20472;-47
2021/05/28 10:46:05;;;;;;;3.80;3.50;;;24.90;36.60;;;;;;4991882;28;20443;-45
2021/05/28 10:48:37;;;;;;;5.43;3.00;;;25.20;35.60;;;;;;4992172;28;20485;-48
2021/05/28 10:51:07;;;;;;;4.50;2.90;;;25.40;36.70;;;;;;4985505;28;20463;-45
2021/05/28 10:53:34;;;;;;;2.90;2.60;;;25.70;35.70;;;;;;4992796;28;20425;-47
2021/05/28 10:56:09;;;;;;;3.47;3.17;;;25.90;35.70;;;;;;4993945;28;20945;-45
2021/05/28 10:58:54;;;;;;;3.77;2.30;;;26.20;35.70;;;;;;4991923;28;20473;-48
2021/05/28 11:01:34;;;;;;;2.60;2.40;;;26.30;35.30;;;;;;4993599;28;20470;-46
2021/05/28 11:04:01;;;;;;;3.43;2.33;;;26.30;35.20;;;;;;4993461;28;20445;-48
2021/05/28 11:06:27;;;;;;;2.53;2.33;;;26.20;35.10;;;;;;4993638;28;20984;-45
2021/05/28 11:09:13;;;;;;;2.30;2.10;;;26.20;34.70;;;;;;4993056;28;20486;-47
2021/05/28 11:11:38;;;;;;;4.00;2.40;;;26.30;34.60;;;;;;4992797;28;20214;-44
2021/05/28 11:14:12;;;;;;;2.60;2.00;;;26.50;34.70;;;;;;4990596;28;20445;-48
2021/05/28 11:16:52;;;;;;;4.20;2.80;;;26.60;35.50;;;;;;4992833;28;20207;-49
2021/05/28 11:19:30;;;;;;;5.23;2.10;;;26.60;33.80;;;;;;4992628;28;20465;-48
2021/05/28 11:22:00;;;;;;;2.57;2.37;;;26.60;34.40;;;;;;4983859;28;20535;-47
2021/05/28 11:24:52;;;;;;;2.53;2.30;;;26.70;34.20;;;;;;4992937;28;20499;-47
2021/05/28 11:27:21;;;;;;;3.83;2.30;;;26.80;34.70;;;;;;4990989;28;20985;-52
2021/05/28 11:30:15;;;;;;;3.67;1.70;;;26.90;33.30;;;;;;4990734;28;20445;-48
2021/05/28 11:32:44;;;;;;;3.20;2.33;;;26.90;33.70;;;;;;4984478;28;20449;-48
2021/05/28 11:35:16;;;;;;;3.30;2.23;;;27.00;32.40;;;;;;4983767;28;20458;-45
2021/05/28 11:38:02;;;;;;;5.30;2.60;;;26.90;33.30;;;;;;4991290;28;20533;-46
2021/05/28 11:40:29;;;;;;;6.57;2.60;;;26.90;32.80;;;;;;4989359;28;20448;-49
2021/05/28 11:43:03;;;;;;;2.57;2.37;;;26.90;33.90;;;;;;4992358;28;20453;-48
2021/05/28 11:45:29;;;;;;;3.00;2.67;;;26.90;33.30;;;;;;4987419;28;20434;-49
2021/05/28 11:47:54;;;;;;;4.37;2.50;;;27.00;32.30;;;;;;4990980;28;20827;-48
2021/05/28 11:50:21;;;;;;;2.10;2.00;;;26.90;32.50;;;;;;4993397;28;20200;-49
2021/05/28 11:53:00;;;;;;;2.27;2.07;;;27.00;32.40;;;;;;4989082;28;20194;-49
2021/05/28 11:55:30;;;;;;;2.37;2.17;;;27.00;30.90;;;;;;4989055;28;20508;-49
2021/05/28 11:58:02;;;;;;;3.53;2.07;;;27.00;31.50;;;;;;4988573;28;20492;-49
2021/05/28 12:00:29;;;;;;;2.23;2.10;;;27.10;31.00;;;;;;4988406;28;20446;-49
2021/05/28 12:02:57;;;;;;;2.30;2.10;;;27.20;33.00;;;;;;4989768;28;20442;-48
2021/05/28 12:05:35;;;;;;;2.47;2.27;;;27.40;33.60;;;;;;4984873;28;20519;-49
2021/05/28 12:08:19;;;;;;;2.10;1.90;;;27.40;33.10;;;;;;4983216;28;20484;-48
2021/05/28 12:10:46;;;;;;;3.23;2.17;;;27.40;30.80;;;;;;4986734;28;20810;-49
2021/05/28 12:13:18;;;;;;;1.60;1.50;;;27.50;32.00;;;;;;4985347;28;20439;-49
2021/05/28 12:16:12;;;;;;;2.57;2.27;;;27.40;32.60;;;;;;4991423;28;20975;-49
2021/05/28 12:18:46;;;;;;;5.20;1.97;;;27.20;33.60;;;;;;4984122;28;20817;-48
2021/05/28 12:21:20;;;;;;;2.47;2.27;;;27.20;33.60;;;;;;4991562;28;20805;-47
2021/05/28 12:23:51;;;;;;;2.37;2.17;;;27.20;33.10;;;;;;4991089;28;20446;-49
2021/05/28 12:26:22;;;;;;;2.43;2.23;;;27.00;32.80;;;;;;4987600;28;20437;-49
2021/05/28 12:28:55;;;;;;;3.37;2.60;;;26.70;33.40;;;;;;4988240;28;20493;-49
2021/05/28 12:31:26;;;;;;;3.00;2.77;;;26.20;33.80;;;;;;4989729;28;20450;-48
2021/05/28 12:33:51;;;;;;;2.33;2.13;;;26.20;34.10;;;;;;4990748;28;20429;-49
2021/05/28 12:36:24;;;;;;;3.80;2.77;;;26.40;33.80;;;;;;4988713;28;20541;-49
2021/05/28 12:38:51;;;;;;;4.70;2.40;;;26.60;32.50;;;;;;4986783;28;20231;-46
2021/05/28 12:41:29;;;;;;;2.90;2.70;;;26.70;32.70;;;;;;4989798;28;20508;-47
2021/05/28 12:43:57;;;;;;;2.73;2.53;;;26.60;34.00;;;;;;4989029;28;20828;-48
2021/05/28 12:46:25;;;;;;;4.33;2.37;;;26.60;33.90;;;;;;4990054;28;20445;-47
2021/05/28 12:49:00;;;;;;;2.43;2.10;;;26.60;33.90;;;;;;4991436;28;20494;-49
2021/05/28 12:51:40;;;;;;;2.07;1.90;;;26.70;33.40;;;;;;4991248;28;20446;-47
2021/05/28 12:54:27;;;;;;;2.00;1.90;;;26.80;31.80;;;;;;4991132;28;20463;-49
2021/05/28 12:56:55;;;;;;;2.00;1.90;;;26.80;32.30;;;;;;4990686;28;20804;-50